Time;durP1;ratioP1;P1;durP2;ratioP2;P2;SDS_P1;SDS_P2;PMS_P1;PMS_P2;Temp;Humidity;BMP_temperature;BMP_pressure;BME280_temperature;BME280_humidity;BME280_pressure;Samples;Min_cycle;Max_cycle;Signal;HPM_P1;HPM_P2
2022/06/17 00:00:20;;;;;;;1.85;1.75;;;;;;;;;;5072819;28;20197;-32
2022/06/17 00:02:47;;;;;;;2.67;2.00;;;;;;;;;;5064451;28;20204;-36
2022/06/17 00:05:14;;;;;;;2.35;2.15;;;;;;;;;;5070468;28;20204;-29
2022/06/17 00:07:41;;;;;;;2.00;1.83;;;;;;;;;;5071773;28;20276;-38
2022/06/17 00:10:24;;;;;;;2.85;1.80;;;;;;;;;;5069582;28;20217;-42
2022/06/17 00:12:51;;;;;;;2.50;1.90;;;;;;;;;;5063907;28;20208;-35
2022/06/17 00:15:19;;;;;;;2.35;2.00;;;;;;;;;;5066758;28;20197;-32
2022/06/17 00:17:48;;;;;;;3.23;2.00;;;;;;;;;;5064697;28;20251;-39
2022/06/17 00:20:17;;;;;;;2.15;1.90;;;;;;;;;;5070654;28;20258;-34
2022/06/17 00:22:45;;;;;;;1.70;1.60;;;;;;;;;;5071794;28;20201;-34
2022/06/17 00:25:20;;;;;;;2.80;2.00;;;;;;;;;;5072038;28;20197;-39
2022/06/17 00:27:48;;;;;;;2.97;2.13;;;;;;;;;;5058394;28;20683;-34
2022/06/17 00:30:19;;;;;;;2.40;2.20;;;;;;;;;;5066588;28;20227;-35
2022/06/17 00:32:47;;;;;;;2.05;1.95;;;;;;;;;;5060452;28;20198;-39
2022/06/17 00:35:14;;;;;;;4.25;2.30;;;;;;;;;;5061673;28;20200;-37
2022/06/17 00:37:42;;;;;;;1.90;1.60;;;;;;;;;;5071660;28;20313;-36
2022/06/17 00:40:13;;;;;;;1.88;1.77;;;;;;;;;;5071389;28;20197;-32
2022/06/17 00:42:42;;;;;;;1.83;1.73;;;;;;;;;;5061503;28;20193;-32
2022/06/17 00:45:13;;;;;;;2.22;2.13;;;;;;;;;;5070723;28;20206;-37
2022/06/17 00:47:44;;;;;;;2.20;1.98;;;;;;;;;;5064115;28;20221;-40
2022/06/17 00:50:15;;;;;;;3.45;2.40;;;;;;;;;;5061103;28;20216;-30
2022/06/17 00:52:45;;;;;;;2.25;2.08;;;;;;;;;;5071415;28;20228;-33
2022/06/17 00:55:26;;;;;;;3.30;2.10;;;;;;;;;;5071567;28;20233;-35
2022/06/17 00:57:54;;;;;;;3.83;2.17;;;;;;;;;;5062438;28;20222;-35
2022/06/17 01:00:22;;;;;;;2.85;1.98;;;;;;;;;;5064053;28;20209;-34
2022/06/17 01:02:51;;;;;;;2.08;1.98;;;;;;;;;;5053588;28;20212;-39
2022/06/17 01:05:20;;;;;;;2.90;2.13;;;;;;;;;;5060566;28;20208;-41
2022/06/17 01:07:50;;;;;;;2.30;2.10;;;;;;;;;;5069734;28;20307;-35
2022/06/17 01:10:19;;;;;;;3.77;3.00;;;;;;;;;;5066111;28;20221;-35
2022/06/17 01:12:48;;;;;;;1.90;1.80;;;;;;;;;;5064170;28;20208;-36
2022/06/17 01:15:18;;;;;;;1.80;1.70;;;;;;;;;;5070991;28;20209;-41
2022/06/17 01:17:45;;;;;;;2.63;2.00;;;;;;;;;;5062677;28;20228;-36
2022/06/17 01:20:13;;;;;;;4.78;2.00;;;;;;;;;;5056744;28;20635;-37
2022/06/17 01:22:43;;;;;;;3.40;2.00;;;;;;;;;;5071338;28;20204;-39
2022/06/17 01:25:12;;;;;;;2.15;2.05;;;;;;;;;;5071056;28;20201;-36
2022/06/17 01:27:40;;;;;;;6.97;2.20;;;;;;;;;;5054609;28;20568;-39
2022/06/17 01:30:08;;;;;;;2.28;1.88;;;;;;;;;;5070666;28;20213;-37
2022/06/17 01:32:38;;;;;;;2.13;2.00;;;;;;;;;;5060608;28;20209;-29
2022/06/17 01:35:06;;;;;;;2.50;2.00;;;;;;;;;;5070223;28;20204;-38
2022/06/17 01:37:34;;;;;;;1.93;1.83;;;;;;;;;;5070525;28;20224;-33
2022/06/17 01:40:03;;;;;;;2.50;2.07;;;;;;;;;;5069574;28;20199;-38
2022/06/17 01:42:31;;;;;;;2.13;2.03;;;;;;;;;;5060351;28;20237;-39
2022/06/17 01:44:58;;;;;;;3.70;2.07;;;;;;;;;;5068829;28;20193;-35
2022/06/17 01:47:26;;;;;;;4.37;1.93;;;;;;;;;;5054856;28;20222;-37
2022/06/17 01:49:56;;;;;;;2.13;1.97;;;;;;;;;;5062061;28;20221;-34
2022/06/17 01:52:27;;;;;;;1.80;1.70;;;;;;;;;;5070369;28;20194;-36
2022/06/17 01:54:56;;;;;;;2.73;2.10;;;;;;;;;;5064704;28;20193;-38
2022/06/17 01:57:27;;;;;;;2.63;1.87;;;;;;;;;;5063179;28;20224;-34
2022/06/17 01:59:57;;;;;;;2.63;2.30;;;;;;;;;;5070252;28;20193;-35
2022/06/17 02:02:24;;;;;;;2.10;2.00;;;;;;;;;;5063123;28;20209;-37
2022/06/17 02:04:54;;;;;;;2.13;1.93;;;;;;;;;;5063404;28;20220;-34
2022/06/17 02:07:23;;;;;;;3.67;2.10;;;;;;;;;;5072492;28;20418;-37
2022/06/17 02:09:51;;;;;;;2.27;2.00;;;;;;;;;;5068269;28;20221;-35
2022/06/17 02:12:19;;;;;;;2.53;2.17;;;;;;;;;;5055631;28;20202;-35
2022/06/17 02:14:48;;;;;;;2.87;1.90;;;;;;;;;;5068451;28;20213;-33
2022/06/17 02:17:16;;;;;;;3.80;2.13;;;;;;;;;;5051998;28;20348;-36
2022/06/17 02:19:45;;;;;;;2.47;2.00;;;;;;;;;;5061197;28;20224;-34
2022/06/17 02:22:13;;;;;;;2.30;2.03;;;;;;;;;;5069068;28;20200;-30
2022/06/17 02:24:41;;;;;;;3.60;2.13;;;;;;;;;;5068673;28;20201;-36
2022/06/17 02:27:09;;;;;;;1.90;1.80;;;;;;;;;;5053233;28;20210;-35
2022/06/17 02:29:37;;;;;;;1.70;1.60;;;;;;;;;;5066409;28;20204;-38
2022/06/17 02:32:08;;;;;;;1.97;1.87;;;;;;;;;;5065660;28;20209;-37
2022/06/17 02:34:37;;;;;;;2.20;1.80;;;;;;;;;;5058030;28;20284;-37
2022/06/17 02:37:07;;;;;;;5.43;1.80;;;;;;;;;;5069605;28;20205;-39
2022/06/17 02:39:34;;;;;;;2.00;1.80;;;;;;;;;;5069970;28;20204;-36
2022/06/17 02:42:01;;;;;;;1.77;1.60;;;;;;;;;;5064404;28;20204;-36
2022/06/17 02:44:30;;;;;;;2.63;2.03;;;;;;;;;;5063830;28;20224;-35
2022/06/17 02:46:58;;;;;;;2.13;2.00;;;;;;;;;;5069257;28;20225;-34
2022/06/17 02:49:27;;;;;;;2.87;1.87;;;;;;;;;;5064913;28;20205;-34
2022/06/17 02:51:55;;;;;;;6.70;2.07;;;;;;;;;;5069071;28;20213;-40
2022/06/17 02:54:30;;;;;;;1.97;1.77;;;;;;;;;;5068915;28;20208;-40
2022/06/17 02:56:58;;;;;;;1.70;1.60;;;;;;;;;;5059759;28;20242;-35
2022/06/17 02:59:28;;;;;;;2.07;1.83;;;;;;;;;;5069264;28;20204;-36
2022/06/17 03:01:57;;;;;;;1.80;1.70;;;;;;;;;;5065813;28;20205;-36
2022/06/17 03:04:28;;;;;;;1.83;1.73;;;;;;;;;;5071221;28;20393;-37
2022/06/17 03:06:57;;;;;;;2.43;1.80;;;;;;;;;;5073129;28;20228;-37
2022/06/17 03:09:26;;;;;;;2.37;1.80;;;;;;;;;;5071423;28;20208;-32
2022/06/17 03:11:55;;;;;;;2.10;1.90;;;;;;;;;;5069519;28;20223;-39
2022/06/17 03:14:24;;;;;;;1.67;1.60;;;;;;;;;;5072955;28;20660;-35
2022/06/17 03:16:52;;;;;;;3.30;1.80;;;;;;;;;;5068993;28;20887;-39
2022/06/17 03:19:20;;;;;;;1.80;1.70;;;;;;;;;;5056048;28;20212;-35
2022/06/17 03:21:47;;;;;;;2.80;1.67;;;;;;;;;;5064067;28;20200;-34
2022/06/17 03:24:18;;;;;;;2.10;1.80;;;;;;;;;;5073324;28;20212;-35
2022/06/17 03:26:47;;;;;;;1.73;1.63;;;;;;;;;;5065154;28;20573;-31
2022/06/17 03:29:15;;;;;;;1.87;1.77;;;;;;;;;;5067047;28;20204;-36
2022/06/17 03:31:43;;;;;;;2.77;2.20;;;;;;;;;;5070494;28;20205;-34
2022/06/17 03:34:14;;;;;;;1.80;1.70;;;;;;;;;;5068369;28;20200;-32
2022/06/17 03:36:44;;;;;;;6.17;2.30;;;;;;;;;;5074853;28;20231;-38
2022/06/17 03:41:52;;;;;;;1.90;1.80;;;;;;;;;;5187085;22;20234;-29
2022/06/17 03:44:20;;;;;;;1.60;1.50;;;;;;;;;;5055515;28;20204;-31
2022/06/17 03:46:51;;;;;;;2.53;1.73;;;;;;;;;;5054046;28;20252;-29
2022/06/17 03:49:20;;;;;;;2.00;1.80;;;;;;;;;;5043252;28;20217;-31
2022/06/17 03:51:50;;;;;;;2.17;2.07;;;;;;;;;;5069996;28;20221;-29
2022/06/17 03:54:18;;;;;;;3.53;2.00;;;;;;;;;;5059534;28;20200;-30
2022/06/17 03:56:47;;;;;;;1.90;1.80;;;;;;;;;;5043480;28;20792;-29
2022/06/17 03:59:17;;;;;;;2.50;2.30;;;;;;;;;;5060549;28;20212;-27
2022/06/17 04:01:46;;;;;;;2.00;1.90;;;;;;;;;;5049142;28;20259;-32
2022/06/17 04:04:16;;;;;;;1.90;1.80;;;;;;;;;;5037770;28;20225;-33
2022/06/17 04:06:44;;;;;;;2.03;1.93;;;;;;;;;;5053740;28;20220;-28
2022/06/17 04:09:16;;;;;;;2.30;2.10;;;;;;;;;;5056193;28;20204;-31
2022/06/17 04:11:45;;;;;;;1.90;1.80;;;;;;;;;;5043357;28;20226;-31
2022/06/17 04:14:18;;;;;;;3.37;2.10;;;;;;;;;;5055432;28;20359;-30
2022/06/17 04:16:47;;;;;;;3.27;2.23;;;;;;;;;;5051671;28;20225;-30
2022/06/17 04:19:16;;;;;;;3.87;2.30;;;;;;;;;;5034108;28;20216;-30
2022/06/17 04:21:43;;;;;;;4.40;2.20;;;;;;;;;;5058296;28;20202;-32
2022/06/17 04:24:13;;;;;;;2.20;2.00;;;;;;;;;;5051893;28;20201;-26
2022/06/17 04:26:41;;;;;;;3.20;2.07;;;;;;;;;;5047055;28;20233;-29
2022/06/17 04:29:11;;;;;;;5.20;2.03;;;;;;;;;;5070332;28;20204;-28
2022/06/17 04:31:39;;;;;;;2.57;2.30;;;;;;;;;;5052724;28;20227;-30
2022/06/17 04:34:08;;;;;;;2.20;1.83;;;;;;;;;;5032288;28;20202;-29
2022/06/17 04:36:37;;;;;;;2.50;2.40;;;;;;;;;;5049445;28;20312;-32
2022/06/17 04:39:06;;;;;;;1.87;1.77;;;;;;;;;;5072322;28;20204;-28
2022/06/17 04:41:36;;;;;;;2.53;2.27;;;;;;;;;;5048245;28;20213;-29
2022/06/17 04:44:04;;;;;;;2.33;2.20;;;;;;;;;;5056577;28;20211;-27
2022/06/17 04:46:34;;;;;;;2.77;2.37;;;;;;;;;;5052369;28;20228;-27
2022/06/17 04:49:04;;;;;;;4.70;2.30;;;;;;;;;;5049881;28;20211;-31
2022/06/17 04:51:32;;;;;;;2.57;2.37;;;;;;;;;;5067798;28;20234;-30
2022/06/17 04:53:59;;;;;;;2.37;2.17;;;;;;;;;;5071544;28;20207;-31
2022/06/17 04:56:28;;;;;;;3.00;2.50;;;;;;;;;;5047968;28;20233;-30
2022/06/17 04:58:55;;;;;;;2.07;1.90;;;;;;;;;;5048606;28;20216;-30
2022/06/17 05:01:24;;;;;;;3.20;2.53;;;;;;;;;;5051107;28;20201;-28
2022/06/17 05:03:52;;;;;;;2.73;2.40;;;;;;;;;;5030482;28;20425;-30
2022/06/17 05:06:20;;;;;;;2.73;2.53;;;;;;;;;;5052659;28;20267;-30
2022/06/17 05:08:50;;;;;;;2.93;2.60;;;;;;;;;;5071593;28;20228;-31
2022/06/17 05:11:22;;;;;;;2.77;2.57;;;;;;;;;;5054333;28;20224;-30
2022/06/17 05:13:52;;;;;;;3.92;3.15;;;;;;;;;;5045230;28;20210;-30
2022/06/17 05:16:19;;;;;;;3.95;2.97;;;;;;;;;;5064554;28;20230;-29
2022/06/17 05:18:46;;;;;;;2.85;2.65;;;;;;;;;;5041740;28;20329;-29
2022/06/17 05:21:18;;;;;;;4.72;2.90;;;;;;;;;;5065193;28;20206;-28
2022/06/17 05:23:46;;;;;;;2.90;2.70;;;;;;;;;;5067791;28;20288;-30
2022/06/17 05:26:13;;;;;;;3.20;2.95;;;;;;;;;;5045569;28;20223;-29
2022/06/17 05:28:40;;;;;;;4.22;2.80;;;;;;;;;;5049126;28;20208;-28
2022/06/17 05:31:08;;;;;;;3.20;2.92;;;;;;;;;;5071127;28;20215;-31
2022/06/17 05:33:37;;;;;;;5.63;3.30;;;;;;;;;;5043295;28;20214;-32
2022/06/17 05:36:04;;;;;;;3.95;3.30;;;;;;;;;;5052074;28;20216;-30
2022/06/17 05:38:31;;;;;;;3.72;3.25;;;;;;;;;;5064364;28;20216;-28
2022/06/17 05:40:59;;;;;;;3.20;2.90;;;;;;;;;;5047916;28;20219;-30
2022/06/17 05:43:26;;;;;;;2.80;2.60;;;;;;;;;;5036067;28;20213;-31
2022/06/17 05:45:54;;;;;;;4.70;3.42;;;;;;;;;;5069780;28;20229;-32
2022/06/17 05:48:21;;;;;;;3.63;3.22;;;;;;;;;;5052073;28;20236;-31
2022/06/17 05:50:48;;;;;;;4.88;3.03;;;;;;;;;;5052891;28;20212;-29
2022/06/17 05:53:15;;;;;;;3.40;3.10;;;;;;;;;;5063947;28;20207;-31
2022/06/17 05:55:42;;;;;;;3.53;3.20;;;;;;;;;;5043759;28;20208;-29
2022/06/17 05:58:11;;;;;;;3.83;3.03;;;;;;;;;;5053864;28;20205;-32
2022/06/17 06:00:38;;;;;;;3.00;2.67;;;;;;;;;;5062416;28;20210;-31
2022/06/17 06:03:07;;;;;;;3.30;3.00;;;;;;;;;;5048826;28;20209;-34
2022/06/17 06:05:35;;;;;;;4.25;3.45;;;;;;;;;;5053827;28;20203;-31
2022/06/17 06:08:02;;;;;;;3.35;3.05;;;;;;;;;;5058376;28;20200;-31
2022/06/17 06:10:29;;;;;;;5.25;2.45;;;;;;;;;;5041970;28;20239;-34
2022/06/17 06:13:03;;;;;;;3.13;2.75;;;;;;;;;;5037299;28;20220;-32
2022/06/17 06:15:33;;;;;;;4.88;2.80;;;;;;;;;;5055528;28;20215;-33
2022/06/17 06:18:00;;;;;;;3.38;3.00;;;;;;;;;;5032889;28;20208;-34
2022/06/17 06:20:29;;;;;;;3.30;2.95;;;;;;;;;;5043898;28;20643;-32
2022/06/17 06:22:56;;;;;;;4.30;3.22;;;;;;;;;;5050962;28;20278;-29
2022/06/17 06:25:23;;;;;;;6.00;2.45;;;;;;;;;;5043397;28;20214;-33
2022/06/17 06:27:50;;;;;;;2.72;2.53;;;;;;;;;;5045745;28;20221;-32
2022/06/17 06:30:19;;;;;;;2.97;2.78;;;;;;;;;;5057749;28;20201;-33
2022/06/17 06:32:55;;;;;;;2.60;2.40;;;;;;;;;;5041132;28;20803;-34
2022/06/17 06:35:24;;;;;;;3.72;2.78;;;;;;;;;;5050346;28;20214;-33
2022/06/17 06:37:51;;;;;;;2.83;2.38;;;;;;;;;;5049666;28;20212;-33
2022/06/17 06:40:19;;;;;;;4.55;2.70;;;;;;;;;;5041940;28;20210;-32
2022/06/17 06:42:47;;;;;;;2.70;2.50;;;;;;;;;;5050720;28;20209;-35
2022/06/17 06:45:17;;;;;;;2.85;2.60;;;;;;;;;;5049717;28;20201;-32
2022/06/17 06:47:45;;;;;;;2.83;2.08;;;;;;;;;;5056773;28;20218;-34
2022/06/17 06:50:18;;;;;;;2.83;2.60;;;;;;;;;;5042236;28;20543;-31
2022/06/17 06:52:45;;;;;;;2.90;2.15;;;;;;;;;;5059763;28;20219;-31
2022/06/17 06:55:13;;;;;;;2.33;2.13;;;;;;;;;;5049428;28;20198;-31
2022/06/17 06:57:45;;;;;;;3.47;2.45;;;;;;;;;;5055848;28;20251;-32
2022/06/17 07:00:13;;;;;;;2.33;2.13;;;;;;;;;;5049164;28;20573;-32
2022/06/17 07:02:40;;;;;;;2.40;2.03;;;;;;;;;;5039971;28;20205;-32
2022/06/17 07:05:08;;;;;;;2.88;1.98;;;;;;;;;;5043583;28;20205;-32
2022/06/17 07:07:36;;;;;;;2.15;1.85;;;;;;;;;;5057163;28;20578;-33
2022/06/17 07:10:04;;;;;;;2.70;2.15;;;;;;;;;;5049315;28;20194;-31
2022/06/17 07:12:31;;;;;;;2.78;2.03;;;;;;;;;;5044545;28;20268;-32
2022/06/17 07:14:58;;;;;;;2.75;2.10;;;;;;;;;;5042794;28;20201;-32
2022/06/17 07:17:25;;;;;;;4.50;1.90;;;;;;;;;;5040041;28;20229;-33
2022/06/17 07:19:53;;;;;;;3.63;1.95;;;;;;;;;;5043299;28;20212;-32
2022/06/17 07:22:20;;;;;;;1.92;1.83;;;;;;;;;;5065461;28;20198;-32
2022/06/17 07:24:48;;;;;;;7.72;2.10;;;;;;;;;;5063449;28;20217;-32
2022/06/17 07:27:16;;;;;;;2.88;2.30;;;;;;;;;;5059655;28;20260;-29
2022/06/17 07:29:43;;;;;;;1.88;1.77;;;;;;;;;;5064154;28;20194;-31
2022/06/17 07:32:10;;;;;;;3.03;2.05;;;;;;;;;;5043010;28;20222;-31
2022/06/17 07:34:37;;;;;;;2.10;2.00;;;;;;;;;;5044984;28;20205;-36
2022/06/17 07:39:58;;;;;;;3.63;1.90;;;;;;;;;;5055194;28;20248;-31
2022/06/17 07:42:26;;;;;;;2.30;2.10;;;;;;;;;;5043355;28;20230;-32
2022/06/17 07:44:53;;;;;;;3.38;2.17;;;;;;;;;;5062139;28;20206;-34
2022/06/17 07:47:23;;;;;;;2.10;1.95;;;;;;;;;;5046245;28;20230;-33
2022/06/17 07:49:51;;;;;;;4.22;2.45;;;;;;;;;;5047170;28;20194;-32
2022/06/17 07:52:19;;;;;;;2.38;1.95;;;;;;;;;;5059265;28;20248;-35
2022/06/17 07:54:46;;;;;;;2.45;2.17;;;;;;;;;;5043043;28;20210;-32
2022/06/17 07:57:16;;;;;;;2.50;2.30;;;;;;;;;;5049081;28;20249;-32
2022/06/17 07:59:43;;;;;;;2.70;2.00;;;;;;;;;;5068339;28;20255;-30
2022/06/17 08:02:10;;;;;;;4.32;2.08;;;;;;;;;;5046285;28;20191;-33
2022/06/17 08:04:38;;;;;;;2.30;2.05;;;;;;;;;;5043989;28;20570;-34
2022/06/17 08:07:05;;;;;;;1.80;1.70;;;;;;;;;;5054109;28;20223;-34
2022/06/17 08:09:33;;;;;;;4.32;2.20;;;;;;;;;;5051985;28;20205;-29
2022/06/17 08:12:00;;;;;;;3.10;2.22;;;;;;;;;;5050678;28;20230;-30
2022/06/17 08:14:35;;;;;;;2.30;2.10;;;;;;;;;;5063092;28;20654;-34
2022/06/17 08:17:02;;;;;;;3.38;2.22;;;;;;;;;;5048028;28;20217;-30
2022/06/17 08:19:29;;;;;;;3.97;2.00;;;;;;;;;;5047414;28;20213;-32
2022/06/17 08:21:56;;;;;;;2.60;1.83;;;;;;;;;;5043324;28;20201;-35
2022/06/17 08:24:23;;;;;;;2.40;1.92;;;;;;;;;;5056597;28;20224;-32
2022/06/17 08:26:50;;;;;;;3.53;1.95;;;;;;;;;;5064234;28;20213;-32
2022/06/17 08:29:17;;;;;;;2.17;2.00;;;;;;;;;;5045003;28;20209;-30
2022/06/17 08:31:46;;;;;;;2.67;2.00;;;;;;;;;;5044811;28;20214;-32
2022/06/17 08:34:13;;;;;;;2.20;2.00;;;;;;;;;;5049525;28;20197;-33
2022/06/17 08:36:40;;;;;;;2.45;2.10;;;;;;;;;;5053306;28;20574;-31
2022/06/17 08:39:09;;;;;;;2.20;2.03;;;;;;;;;;5055283;28;20273;-34
2022/06/17 08:41:38;;;;;;;2.83;2.33;;;;;;;;;;5051332;28;20216;-32
2022/06/17 08:44:12;;;;;;;2.20;2.10;;;;;;;;;;5050796;28;20190;-33
2022/06/17 08:46:46;;;;;;;2.50;2.30;;;;;;;;;;5049719;28;20434;-31
2022/06/17 08:49:24;;;;;;;2.58;1.88;;;;;;;;;;5040453;28;20205;-34
2022/06/17 08:51:59;;;;;;;2.83;2.17;;;;;;;;;;5053215;28;21552;-31
2022/06/17 08:54:36;;;;;;;4.88;2.00;;;;;;;;;;5057765;28;20208;-33
2022/06/17 08:57:10;;;;;;;2.25;2.05;;;;;;;;;;5042482;28;20551;-31
2022/06/17 08:59:58;;;;;;;6.00;2.70;;;;;;;;;;5054694;28;20194;-34
2022/06/17 09:02:37;;;;;;;2.63;2.13;;;;;;;;;;5054677;28;20198;-35
2022/06/17 09:05:19;;;;;;;1.52;1.52;;;;;;;;;;5037670;28;20535;-30
2022/06/17 09:07:52;;;;;;;5.13;2.10;;;;;;;;;;5069331;28;20266;-33
2022/06/17 09:10:24;;;;;;;2.30;2.10;;;;;;;;;;5059041;28;20207;-31
2022/06/17 09:12:57;;;;;;;2.35;2.15;;;;;;;;;;5045194;28;20240;-31
2022/06/17 09:15:32;;;;;;;3.28;2.10;;;;;;;;;;5042028;28;20212;-31
2022/06/17 09:18:02;;;;;;;2.75;1.92;;;;;;;;;;5030233;28;20208;-30
2022/06/17 09:20:35;;;;;;;1.70;1.60;;;;;;;;;;5053860;28;20205;-32
2022/06/17 09:23:04;;;;;;;2.50;1.52;;;;;;;;;;5071059;28;20208;-31
2022/06/17 09:25:36;;;;;;;2.50;1.80;;;;;;;;;;5056320;28;20194;-33
2022/06/17 09:28:03;;;;;;;3.75;2.00;;;;;;;;;;5049402;28;20201;-32
2022/06/17 09:30:33;;;;;;;2.05;1.73;;;;;;;;;;5054601;28;20194;-33
2022/06/17 09:33:06;;;;;;;2.28;1.75;;;;;;;;;;5039144;28;20223;-30
2022/06/17 09:35:36;;;;;;;2.15;1.92;;;;;;;;;;5045004;28;20651;-32
2022/06/17 09:38:12;;;;;;;3.97;1.50;;;;;;;;;;5051080;28;20198;-32
2022/06/17 09:40:41;;;;;;;2.08;1.88;;;;;;;;;;5047475;28;20233;-34
2022/06/17 09:43:12;;;;;;;2.15;1.70;;;;;;;;;;5052888;28;20216;-34
2022/06/17 09:45:43;;;;;;;2.70;1.80;;;;;;;;;;5050312;28;20194;-34
2022/06/17 09:48:14;;;;;;;1.92;1.83;;;;;;;;;;5035706;28;20201;-35
2022/06/17 09:50:45;;;;;;;2.10;1.80;;;;;;;;;;5039364;28;20206;-30
2022/06/17 09:53:14;;;;;;;2.08;1.70;;;;;;;;;;5056740;28;20702;-36
2022/06/17 09:55:42;;;;;;;3.58;2.05;;;;;;;;;;5042290;28;20202;-35
2022/06/17 09:58:12;;;;;;;3.72;1.98;;;;;;;;;;5036704;28;20641;-31
2022/06/17 10:00:42;;;;;;;2.83;1.75;;;;;;;;;;5064926;28;20204;-32
2022/06/17 10:03:21;;;;;;;1.70;1.60;;;;;;;;;;5048278;28;20189;-32
2022/06/17 10:05:56;;;;;;;3.10;1.70;;;;;;;;;;5044503;28;20205;-31
2022/06/17 10:08:27;;;;;;;2.10;1.92;;;;;;;;;;5055831;28;20204;-31
2022/06/17 10:10:58;;;;;;;1.85;1.75;;;;;;;;;;5047574;28;20190;-33
2022/06/17 10:13:30;;;;;;;1.95;1.63;;;;;;;;;;5045992;28;20242;-30
2022/06/17 10:18:55;;;;;;;2.70;2.45;;;;;;;;;;5003288;28;20295;-33
2022/06/17 10:21:31;;;;;;;5.20;1.92;;;;;;;;;;5045622;28;20204;-30
2022/06/17 10:24:08;;;;;;;2.17;1.98;;;;;;;;;;5038483;28;20205;-31
2022/06/17 10:26:41;;;;;;;2.97;2.03;;;;;;;;;;5033769;28;20281;-33
2022/06/17 10:29:16;;;;;;;2.42;2.25;;;;;;;;;;5044156;28;20213;-33
2022/06/17 10:31:44;;;;;;;2.35;1.98;;;;;;;;;;5042077;28;20231;-35
2022/06/17 10:34:14;;;;;;;2.28;1.83;;;;;;;;;;5038888;28;20223;-30
2022/06/17 10:36:44;;;;;;;2.13;2.00;;;;;;;;;;5055001;28;20219;-30
2022/06/17 10:39:13;;;;;;;1.83;1.70;;;;;;;;;;5048564;28;20207;-29
2022/06/17 10:41:41;;;;;;;1.98;1.85;;;;;;;;;;5044855;28;20234;-31
2022/06/17 10:44:10;;;;;;;2.90;1.95;;;;;;;;;;5055512;28;20307;-30
2022/06/17 10:46:40;;;;;;;2.25;1.90;;;;;;;;;;5050640;28;20223;-31
2022/06/17 10:49:11;;;;;;;4.72;2.22;;;;;;;;;;5038908;28;20211;-33
2022/06/17 10:51:39;;;;;;;1.83;1.73;;;;;;;;;;5065884;28;20191;-30
2022/06/17 10:54:15;;;;;;;2.10;1.98;;;;;;;;;;5049631;28;20266;-29
2022/06/17 10:56:47;;;;;;;2.45;1.70;;;;;;;;;;5050188;28;20714;-29
2022/06/17 10:59:14;;;;;;;2.45;2.20;;;;;;;;;;5034094;28;20195;-30
2022/06/17 11:01:52;;;;;;;2.55;1.92;;;;;;;;;;5046646;28;20211;-32
2022/06/17 11:04:21;;;;;;;2.22;2.03;;;;;;;;;;5031983;28;20205;-34
2022/06/17 11:06:50;;;;;;;2.10;1.75;;;;;;;;;;5048266;28;20226;-28
2022/06/17 11:09:22;;;;;;;2.85;2.10;;;;;;;;;;5052166;28;20657;-33
2022/06/17 11:12:06;;;;;;;4.25;1.88;;;;;;;;;;5041113;28;20205;-33
2022/06/17 11:14:36;;;;;;;4.15;2.00;;;;;;;;;;5047088;28;20256;-34
2022/06/17 11:17:04;;;;;;;1.65;1.55;;;;;;;;;;5062590;28;20219;-33
2022/06/17 11:19:31;;;;;;;1.70;1.50;;;;;;;;;;5048065;28;20200;-30
2022/06/17 11:22:00;;;;;;;3.00;1.80;;;;;;;;;;5047687;28;20203;-34
2022/06/17 11:24:30;;;;;;;1.92;1.52;;;;;;;;;;5069652;28;20197;-33
2022/06/17 11:27:01;;;;;;;2.63;1.88;;;;;;;;;;5056490;28;20234;-33
2022/06/17 11:29:36;;;;;;;2.60;1.90;;;;;;;;;;5067455;28;20207;-31
2022/06/17 11:32:12;;;;;;;1.80;1.70;;;;;;;;;;5066091;28;20203;-33
2022/06/17 11:34:48;;;;;;;1.70;1.60;;;;;;;;;;5050468;28;20210;-33
2022/06/17 11:37:19;;;;;;;1.63;1.52;;;;;;;;;;5067203;28;20226;-30
2022/06/17 11:39:47;;;;;;;1.73;1.63;;;;;;;;;;5076002;28;20213;-31
2022/06/17 11:42:16;;;;;;;5.20;2.05;;;;;;;;;;5061955;28;20197;-31
2022/06/17 11:44:51;;;;;;;12.73;2.60;;;;;;;;;;5059964;28;20203;-33
2022/06/17 11:49:47;;;;;;;1.65;1.55;;;;;;;;;;5052490;28;20226;-33
2022/06/17 11:52:25;;;;;;;2.70;1.58;;;;;;;;;;5054713;28;20204;-32
2022/06/17 11:54:55;;;;;;;1.90;1.75;;;;;;;;;;5054936;28;20188;-31
2022/06/17 11:57:25;;;;;;;4.15;1.67;;;;;;;;;;5050613;28;20245;-32
2022/06/17 11:59:54;;;;;;;2.45;1.95;;;;;;;;;;5053186;28;20221;-31
2022/06/17 12:02:21;;;;;;;2.40;1.70;;;;;;;;;;5046404;28;20223;-37
2022/06/17 12:04:49;;;;;;;2.28;2.08;;;;;;;;;;5037899;28;20291;-30
2022/06/17 12:07:37;;;;;;;2.40;1.50;;;;;;;;;;5054369;28;20223;-37
2022/06/17 12:10:19;;;;;;;1.58;1.48;;;;;;;;;;5055281;28;20226;-35
2022/06/17 12:12:49;;;;;;;2.08;1.58;;;;;;;;;;5037455;28;20238;-37
2022/06/17 12:15:23;;;;;;;2.15;1.50;;;;;;;;;;5053454;28;20203;-33
2022/06/17 12:17:52;;;;;;;2.03;1.80;;;;;;;;;;5044389;28;20241;-38
2022/06/17 12:20:23;;;;;;;2.28;1.65;;;;;;;;;;5055247;28;20203;-35
2022/06/17 12:23:00;;;;;;;2.03;1.83;;;;;;;;;;5055186;28;20201;-36
2022/06/17 12:25:34;;;;;;;4.05;1.60;;;;;;;;;;5048736;28;20217;-36
2022/06/17 12:28:06;;;;;;;1.63;1.52;;;;;;;;;;5045623;28;20211;-31
2022/06/17 12:30:39;;;;;;;1.60;1.50;;;;;;;;;;5053461;28;20213;-37
2022/06/17 12:33:09;;;;;;;1.60;1.50;;;;;;;;;;5049328;28;20224;-37
2022/06/17 12:35:39;;;;;;;2.47;1.98;;;;;;;;;;5045375;28;20760;-37
2022/06/17 12:38:09;;;;;;;1.55;1.42;;;;;;;;;;5054708;28;20208;-34
2022/06/17 12:40:40;;;;;;;1.90;1.70;;;;;;;;;;5055398;28;20211;-41
2022/06/17 12:43:28;;;;;;;1.90;1.80;;;;;;;;;;5042802;28;20423;-34
2022/06/17 12:45:59;;;;;;;2.53;1.75;;;;;;;;;;5053916;28;20228;-32
2022/06/17 12:48:29;;;;;;;1.58;1.48;;;;;;;;;;5041086;28;20228;-29
2022/06/17 12:53:50;;;;;;;1.60;1.50;;;;;;;;;;5054068;28;20238;-32
2022/06/17 12:56:23;;;;;;;1.45;1.40;;;;;;;;;;5050536;28;20240;-35
2022/06/17 12:59:09;;;;;;;1.98;1.77;;;;;;;;;;5052076;28;20231;-36
2022/06/17 13:01:39;;;;;;;1.70;1.60;;;;;;;;;;5049683;28;20232;-38
2022/06/17 13:04:14;;;;;;;1.70;1.60;;;;;;;;;;5042071;28;20204;-40
2022/06/17 13:06:46;;;;;;;1.55;1.45;;;;;;;;;;5051838;28;20242;-32
2022/06/17 13:09:17;;;;;;;2.47;1.67;;;;;;;;;;5054407;28;20215;-37
2022/06/17 13:11:48;;;;;;;3.65;1.38;;;;;;;;;;5046424;28;20205;-36
2022/06/17 13:14:19;;;;;;;2.08;1.30;;;;;;;;;;5048120;28;20236;-33
2022/06/17 13:16:52;;;;;;;1.48;1.38;;;;;;;;;;5050161;28;20322;-36
2022/06/17 13:19:23;;;;;;;2.20;1.48;;;;;;;;;;5042800;28;20683;-31
2022/06/17 13:21:59;;;;;;;1.58;1.48;;;;;;;;;;5051905;28;20203;-31
2022/06/17 13:24:31;;;;;;;1.50;1.40;;;;;;;;;;5052999;28;20267;-31
2022/06/17 13:27:01;;;;;;;1.30;1.25;;;;;;;;;;5047473;28;20233;-38
2022/06/17 13:29:34;;;;;;;1.60;1.50;;;;;;;;;;5048228;28;20209;-36
2022/06/17 13:32:07;;;;;;;1.30;1.25;;;;;;;;;;5047102;28;20210;-34
2022/06/17 13:34:36;;;;;;;2.40;1.38;;;;;;;;;;5034147;28;20272;-31
2022/06/17 13:37:05;;;;;;;1.45;1.25;;;;;;;;;;5053024;28;20225;-32
2022/06/17 13:39:34;;;;;;;2.05;1.50;;;;;;;;;;5049581;28;20213;-40
2022/06/17 13:42:02;;;;;;;4.20;1.65;;;;;;;;;;5044897;28;20208;-34
2022/06/17 13:44:36;;;;;;;1.63;1.40;;;;;;;;;;5052343;28;20209;-30
2022/06/17 13:47:07;;;;;;;3.45;1.25;;;;;;;;;;5047877;28;20226;-31
2022/06/17 13:49:40;;;;;;;1.40;1.30;;;;;;;;;;5041595;28;20216;-40
2022/06/17 13:52:11;;;;;;;1.20;1.20;;;;;;;;;;5048559;28;20209;-37
2022/06/17 13:54:41;;;;;;;2.83;1.08;;;;;;;;;;5049653;28;20222;-34
2022/06/17 13:57:09;;;;;;;1.40;1.30;;;;;;;;;;5052284;28;20316;-39
2022/06/17 13:59:38;;;;;;;1.30;1.20;;;;;;;;;;5052073;28;20214;-31
2022/06/17 14:02:20;;;;;;;1.40;1.40;;;;;;;;;;5043763;28;20210;-34
2022/06/17 14:05:20;;;;;;;3.42;1.20;;;;;;;;;;5051220;28;20201;-39
2022/06/17 14:07:58;;;;;;;1.98;1.50;;;;;;;;;;5052824;28;20221;-35
2022/06/17 14:10:32;;;;;;;1.00;1.00;;;;;;;;;;5047351;28;20214;-35
2022/06/17 14:13:00;;;;;;;1.20;1.20;;;;;;;;;;5044672;28;20205;-34
2022/06/17 14:15:30;;;;;;;2.65;1.25;;;;;;;;;;5052109;28;20309;-31
2022/06/17 14:18:01;;;;;;;1.77;1.40;;;;;;;;;;5039205;28;20288;-34
2022/06/17 14:20:32;;;;;;;1.40;1.30;;;;;;;;;;5040728;28;20212;-36
2022/06/17 14:23:03;;;;;;;1.60;1.33;;;;;;;;;;5044257;28;20197;-38
2022/06/17 14:25:45;;;;;;;1.52;1.23;;;;;;;;;;5047099;28;20210;-41
2022/06/17 14:28:27;;;;;;;1.55;1.45;;;;;;;;;;5042118;28;20209;-33
2022/06/17 14:31:09;;;;;;;1.40;1.38;;;;;;;;;;5051737;28;20214;-33
2022/06/17 14:33:42;;;;;;;1.40;1.30;;;;;;;;;;5034158;28;20222;-36
2022/06/17 14:36:20;;;;;;;1.40;1.30;;;;;;;;;;5039794;28;20249;-35
2022/06/17 14:38:57;;;;;;;1.85;1.30;;;;;;;;;;5050480;28;20197;-35
2022/06/17 14:44:23;;;;;;;1.52;1.45;;;;;;;;;;5038057;28;20205;-35
2022/06/17 14:47:09;;;;;;;1.65;1.30;;;;;;;;;;5040742;28;20234;-35
2022/06/17 14:49:42;;;;;;;1.77;1.40;;;;;;;;;;5041527;28;20210;-34
2022/06/17 14:52:22;;;;;;;1.92;1.27;;;;;;;;;;5050547;28;20206;-32
2022/06/17 14:54:58;;;;;;;2.55;1.40;;;;;;;;;;5052025;28;20224;-37
2022/06/17 14:57:25;;;;;;;1.45;1.35;;;;;;;;;;5045596;28;20255;-39
2022/06/17 15:00:03;;;;;;;2.13;1.35;;;;;;;;;;5048903;28;20206;-35
2022/06/17 15:02:37;;;;;;;3.47;1.80;;;;;;;;;;5047252;28;20214;-33
2022/06/17 15:05:07;;;;;;;1.70;1.60;;;;;;;;;;5041925;28;20204;-34
2022/06/17 15:07:35;;;;;;;1.90;1.80;;;;;;;;;;5050578;28;20320;-30
2022/06/17 15:10:04;;;;;;;1.63;1.48;;;;;;;;;;5046965;28;20208;-36
2022/06/17 15:12:33;;;;;;;1.33;1.20;;;;;;;;;;5057206;28;20228;-38
2022/06/17 15:15:02;;;;;;;1.50;1.40;;;;;;;;;;5054932;28;20221;-34
2022/06/17 15:17:34;;;;;;;1.63;1.52;;;;;;;;;;5038317;28;20234;-31